Список аэропортов
Фактическая погода:

25 июня, 00:30
Температура: +13°C (+12.1*)
Ветер: южный 3 м/с
Давление: *756 мм
неб. 990 м
Время (МСК)Темп. СВетерВлажностьДавлениеОблачностьОсадки
21:00+16ЮВ, 2 м/с95%1007 гПаоблачносл. дождь
22:00+16ЮВ, 3 м/с91%1008 гПаоблачно
23:00+15В, 2 м/с96%1008 гПас прояснениями
25 июня
00:00+14ЮВ, 4 м/с89%1008 гПамалооблачно
01:00+13ЮВ, 4 м/с86%1009 гПас прояснениями
02:00+12ЮВ, 3 м/с88%1009 гПамалооблачно
03:00+11ЮВ, 3 м/с92%1010 гПас прояснениями
04:00+11ЮВ, 3 м/с93%1010 гПас прояснениями
05:00+11ЮВ, 3 м/с95%1010 гПаоблачно
06:00+12ЮВ, 2 м/с92%1011 гПаоблачносл. дождь
07:00+12ЮВ, 2 м/с89%1011 гПаоблачно
08:00+13ЮВ, 3 м/с86%1012 гПаоблачно
09:00+14ЮВ, 3 м/с77%1013 гПаоблачно
10:00+18Ю, 4 м/с60%1013 гПаоблачно
11:00+19Ю, 4 м/с50%1013 гПамалооблачно
12:00+20Ю, 4 м/с46%1014 гПаоблачно
13:00+21Ю, 3 м/с42%1014 гПаясно
14:00+22Ю, 3 м/с39%1014 гПаясно
15:00+23Ю, 3 м/с36%1015 гПаясно
16:00+23Ю, 3 м/с35%1015 гПаясно
17:00+23Ю, 2 м/с35%1015 гПаясно
18:00+23Ю, 2 м/с36%1015 гПаясно
19:00+22ЮЗ, 2 м/с40%1015 гПаясно
20:00+21З, 2 м/с48%1016 гПаясно
21:00+19З, 3 м/с58%1016 гПаясно
22:00+17З, 2 м/с67%1017 гПаясно
23:00+14З, 1 м/с79%1017 гПаясно
26 июня
00:00+13З, 2 м/с86%1018 гПаясно
01:00+12СЗ, 2 м/с91%1019 гПаясно
02:00+12СЗ, 1 м/с96%1019 гПаясно
03:00+10СЗ, 1 м/с99%1019 гПаясно
04:00+9Штиль 100%1020 гПамалооблачно
05:00+10Штиль 100%1020 гПас прояснениями
06:00+12Ю, 1 м/с100%1020 гПас прояснениями
07:00+15Штиль 95%1020 гПамалооблачно
08:00+18Штиль 83%1020 гПаясно
09:00+20Штиль 68%1021 гПаясно
10:00+23Штиль 52%1021 гПамалооблачно
11:00+24Ю, 2 м/с42%1021 гПамалооблачно
12:00+25ЮЗ, 2 м/с38%1021 гПамалооблачно
13:00+26ЮЗ, 2 м/с35%1021 гПамалооблачно
14:00+26ЮЗ, 2 м/с34%1021 гПамалооблачно
15:00+26З, 4 м/с36%1021 гПамалооблачно
16:00+24СЗ, 5 м/с37%1021 гПамалооблачно
17:00+24З, 5 м/с37%1022 гПаясно
18:00+23З, 5 м/с38%1022 гПаясно
19:00+22З, 4 м/с41%1022 гПаясно
20:00+21З, 3 м/с44%1022 гПамалооблачно
21:00+20З, 2 м/с50%1023 гПамалооблачно